createdAt,value
2018-03-16T00:00:24.790Z,21.50
2018-03-16T00:01:24.807Z,23.60
2018-03-16T00:02:24.824Z,22.10
2018-03-16T00:03:24.841Z,24.70
2018-03-16T00:04:24.856Z,20.70
2018-03-16T00:05:24.873Z,23.30
2018-03-16T00:06:24.890Z,23.60
2018-03-16T00:07:24.910Z,23.30
2018-03-16T00:08:24.925Z,22.40
2018-03-16T00:09:24.937Z,22.70
2018-03-16T00:10:24.955Z,22.80
2018-03-16T00:11:24.972Z,26.00
2018-03-16T00:12:24.988Z,24.00
2018-03-16T00:13:25.007Z,23.10
2018-03-16T00:14:25.023Z,22.00
2018-03-16T00:15:25.040Z,24.30
2018-03-16T00:16:25.054Z,23.70
2018-03-16T00:17:25.070Z,21.80
2018-03-16T00:18:25.089Z,22.20
2018-03-16T00:19:25.106Z,21.90
2018-03-16T00:20:25.122Z,23.10
2018-03-16T00:21:25.140Z,24.20
2018-03-16T00:22:25.155Z,24.00
2018-03-16T00:23:25.168Z,22.90
2018-03-16T00:24:25.186Z,23.70
2018-03-16T00:25:25.202Z,23.10
2018-03-16T00:26:25.230Z,24.40
2018-03-16T00:27:25.237Z,23.60
2018-03-16T00:28:25.253Z,22.30
2018-03-16T00:29:25.270Z,22.50
2018-03-16T00:30:25.286Z,24.00
2018-03-16T00:31:25.306Z,22.50
2018-03-16T00:32:25.323Z,23.40
2018-03-16T00:33:25.334Z,24.10
2018-03-16T00:34:25.351Z,23.30
2018-03-16T00:35:25.367Z,25.40
2018-03-16T00:36:25.385Z,25.80
2018-03-16T00:37:25.404Z,23.70
2018-03-16T00:38:25.419Z,24.10
2018-03-16T00:39:25.434Z,23.60
2018-03-16T00:40:25.451Z,23.90
2018-03-16T00:41:25.467Z,25.00
2018-03-16T00:42:25.483Z,24.70
2018-03-16T00:43:25.500Z,23.60
2018-03-16T00:44:25.543Z,23.60
2018-03-16T00:45:25.541Z,25.00
2018-03-16T00:46:25.550Z,23.10
2018-03-16T00:47:25.565Z,23.10
2018-03-16T00:48:25.583Z,24.80
2018-03-16T00:49:25.599Z,26.10
2018-03-16T00:50:25.615Z,24.80
2018-03-16T00:51:25.631Z,23.70
2018-03-16T00:52:25.651Z,24.20
2018-03-16T00:53:25.665Z,26.00
2018-03-16T00:54:25.681Z,25.70
2018-03-16T00:55:25.698Z,26.90
2018-03-16T00:56:25.715Z,28.20
2018-03-16T00:57:25.729Z,25.80
2018-03-16T00:58:25.746Z,27.70
2018-03-16T00:59:25.764Z,30.60
2018-03-16T01:00:25.783Z,28.90
2018-03-16T01:01:25.796Z,27.30
2018-03-16T01:02:25.813Z,29.50
2018-03-16T01:03:25.830Z,27.40
2018-03-16T01:04:25.845Z,27.20
2018-03-16T01:05:25.862Z,30.50
2018-03-16T01:06:25.879Z,28.60
2018-03-16T01:07:25.900Z,28.40
2018-03-16T01:08:25.912Z,26.90
2018-03-16T01:09:25.926Z,27.10
2018-03-16T01:10:25.944Z,27.30
2018-03-16T01:11:25.961Z,25.30
2018-03-16T01:12:25.979Z,27.70
2018-03-16T01:13:25.994Z,26.70
2018-03-16T01:14:26.038Z,25.90
2018-03-16T01:15:26.033Z,27.00
2018-03-16T01:16:26.051Z,27.70
2018-03-16T01:17:26.061Z,27.10
2018-03-16T01:18:26.078Z,28.10
2018-03-16T01:19:26.092Z,26.30
2018-03-16T01:20:26.109Z,27.70
2018-03-16T01:21:26.130Z,25.20
2018-03-16T01:22:26.142Z,26.40
2018-03-16T01:23:26.160Z,26.30
2018-03-16T01:24:26.176Z,28.80
2018-03-16T01:25:26.190Z,27.00
2018-03-16T01:26:26.208Z,27.20
2018-03-16T01:27:26.226Z,27.60
2018-03-16T01:28:26.241Z,26.40
2018-03-16T01:29:26.257Z,27.70
2018-03-16T01:30:26.274Z,27.20
2018-03-16T01:31:26.293Z,25.00
2018-03-16T01:32:26.306Z,25.40
2018-03-16T01:33:26.323Z,25.40
2018-03-16T01:34:26.347Z,27.10
2018-03-16T01:35:26.357Z,25.00
2018-03-16T01:36:26.372Z,28.50
2018-03-16T01:37:26.389Z,27.00
2018-03-16T01:38:26.405Z,24.20
2018-03-16T01:39:26.426Z,25.90
2018-03-16T01:40:26.443Z,25.30
2018-03-16T01:41:26.455Z,26.80
2018-03-16T01:42:26.472Z,26.10
2018-03-16T01:43:26.489Z,27.60
2018-03-16T01:44:26.505Z,25.30
2018-03-16T01:45:26.524Z,24.70
2018-03-16T01:46:26.536Z,26.20
2018-03-16T01:47:26.553Z,26.40
2018-03-16T01:48:26.573Z,26.40
2018-03-16T01:49:26.589Z,27.70
2018-03-16T01:50:26.603Z,26.90
2018-03-16T01:51:26.624Z,26.40
2018-03-16T01:52:26.637Z,25.90
2018-03-16T01:53:26.654Z,25.20
2018-03-16T01:54:26.676Z,27.70
2018-03-16T01:55:26.687Z,26.20
2018-03-16T01:56:26.706Z,27.40
2018-03-16T01:57:26.719Z,25.00
2018-03-16T01:58:26.736Z,28.60
2018-03-16T01:59:26.752Z,26.10
2018-03-16T02:00:26.769Z,26.60
2018-03-16T02:01:26.784Z,28.00
2018-03-16T02:02:26.802Z,28.80
2018-03-16T02:03:26.817Z,27.70
2018-03-16T02:04:26.834Z,28.00
2018-03-16T02:05:26.853Z,30.00
2018-03-16T02:06:26.867Z,29.10
2018-03-16T02:07:26.885Z,29.70
2018-03-16T02:08:26.901Z,28.80
2018-03-16T02:09:26.919Z,28.50
2018-03-16T02:10:26.934Z,29.10
2018-03-16T02:11:26.958Z,29.80
2018-03-16T02:12:26.971Z,29.50
2018-03-16T02:13:26.983Z,26.30
2018-03-16T02:14:27.000Z,27.60
2018-03-16T02:15:27.017Z,29.60
2018-03-16T02:16:27.033Z,28.40
2018-03-16T02:17:27.050Z,29.50
2018-03-16T02:18:27.075Z,30.10
2018-03-16T02:19:27.084Z,30.90
2018-03-16T02:20:27.100Z,29.90
2018-03-16T02:21:27.116Z,29.60
2018-03-16T02:22:27.134Z,30.40
2018-03-16T02:23:27.153Z,30.00
2018-03-16T02:24:27.171Z,28.30
2018-03-16T02:25:27.182Z,31.40
2018-03-16T02:26:27.201Z,28.90
2018-03-16T02:27:27.218Z,29.80
2018-03-16T02:28:27.232Z,27.90
2018-03-16T02:29:27.252Z,29.80
2018-03-16T02:30:27.267Z,31.50
2018-03-16T02:31:27.284Z,32.50
2018-03-16T02:32:27.306Z,30.30
2018-03-16T02:33:27.318Z,30.70
2018-03-16T02:34:27.337Z,29.20
2018-03-16T02:35:27.352Z,30.60
2018-03-16T02:36:27.366Z,31.30
2018-03-16T02:37:27.383Z,31.40
2018-03-16T02:38:27.401Z,29.40
2018-03-16T02:39:27.417Z,29.70
2018-03-16T02:40:27.434Z,33.50
2018-03-16T02:41:27.449Z,30.60
2018-03-16T02:42:27.465Z,31.80
2018-03-16T02:43:27.484Z,30.50
2018-03-16T02:44:27.502Z,31.10
2018-03-16T02:45:27.517Z,28.90
2018-03-16T02:46:27.535Z,29.90
2018-03-16T02:47:27.553Z,29.70
2018-03-16T02:48:27.574Z,30.40
2018-03-16T02:49:27.583Z,29.00
2018-03-16T02:50:27.603Z,30.20
2018-03-16T02:51:27.618Z,29.80
2018-03-16T02:52:27.634Z,30.90
2018-03-16T02:53:27.652Z,30.30
2018-03-16T02:54:27.669Z,28.90
2018-03-16T02:55:27.684Z,29.60
2018-03-16T02:56:27.702Z,29.30
2018-03-16T02:57:27.719Z,31.30
2018-03-16T02:58:27.734Z,29.00
2018-03-16T02:59:27.753Z,30.90
2018-03-16T03:00:27.768Z,29.10
2018-03-16T03:01:27.784Z,29.20
2018-03-16T03:02:27.801Z,29.70
2018-03-16T03:03:27.816Z,30.40
2018-03-16T03:04:27.836Z,29.50
2018-03-16T03:05:27.850Z,30.40
2018-03-16T03:06:27.868Z,31.50
2018-03-16T05:06:18.215Z,27.40
2018-03-16T05:07:18.199Z,38.50
2018-03-16T05:09:11.137Z,41.50
2018-03-16T05:10:11.110Z,37.20
2018-03-16T05:12:04.039Z,37.80
2018-03-16T05:13:04.024Z,37.60
2018-03-16T05:14:56.936Z,36.40
2018-03-16T05:15:56.944Z,37.90
2018-03-16T05:17:49.875Z,35.00
2018-03-16T05:18:49.864Z,37.40
2018-03-16T05:20:42.777Z,33.10
2018-03-16T05:21:42.788Z,34.60
2018-03-16T05:23:35.743Z,33.40
2018-03-16T05:24:35.713Z,33.50
2018-03-16T05:26:28.653Z,32.40
2018-03-16T05:27:28.640Z,33.20
2018-03-16T05:29:21.557Z,33.50
2018-03-16T05:30:21.568Z,34.60
2018-03-16T05:32:14.500Z,34.00
2018-03-16T05:33:14.491Z,33.10
2018-03-16T05:35:07.412Z,34.40
2018-03-16T05:36:07.420Z,31.30
2018-03-16T05:38:00.359Z,31.40
2018-03-16T05:39:00.346Z,31.30
2018-03-16T05:40:53.267Z,31.60
2018-03-16T05:41:53.278Z,33.40
2018-03-16T05:43:46.217Z,32.40
2018-03-16T05:44:46.213Z,32.40
2018-03-16T05:46:39.152Z,32.20
2018-03-16T05:47:39.141Z,33.00
2018-03-16T05:49:32.060Z,33.20
2018-03-16T05:50:32.071Z,33.30
2018-03-16T05:52:25.012Z,33.40
2018-03-16T05:53:25.001Z,32.20
2018-03-16T05:55:17.918Z,31.00
2018-03-16T05:56:17.929Z,33.20
2018-03-16T05:58:11.365Z,30.90
2018-03-16T05:59:11.353Z,32.00
2018-03-16T06:01:04.288Z,32.70
2018-03-16T06:02:04.286Z,31.30
2018-03-16T06:03:57.224Z,32.30
2018-03-16T06:04:57.216Z,31.50
2018-03-16T06:06:50.160Z,31.60
2018-03-16T06:07:50.151Z,30.70
2018-03-16T06:09:43.070Z,30.90
2018-03-16T06:10:43.082Z,31.00
2018-03-16T06:12:36.020Z,29.30
2018-03-16T06:13:36.010Z,30.90
2018-03-16T06:15:28.927Z,31.40
2018-03-16T06:16:28.940Z,34.10
2018-03-16T06:18:22.375Z,31.50
2018-03-16T06:19:22.365Z,30.30
2018-03-16T06:21:15.286Z,30.20
2018-03-16T06:22:15.296Z,30.60
2018-03-16T06:24:08.232Z,30.40
2018-03-16T06:25:08.225Z,30.80
2018-03-16T06:27:01.189Z,31.50
2018-03-16T06:28:01.162Z,30.60
2018-03-16T06:29:54.146Z,29.60
2018-03-16T06:30:54.157Z,28.50
2018-03-16T06:32:47.223Z,30.10
2018-03-16T06:33:47.212Z,32.10
2018-03-16T06:35:40.260Z,28.80
2018-03-16T06:36:40.270Z,30.20
2018-03-16T06:38:33.297Z,30.90
2018-03-16T06:39:33.287Z,30.30
2018-03-16T06:41:26.208Z,30.30
2018-03-16T06:42:26.218Z,29.60
2018-03-16T06:44:19.158Z,28.60
2018-03-16T06:45:19.149Z,30.60
2018-03-16T06:47:12.069Z,28.80
2018-03-16T06:48:12.084Z,28.80
2018-03-16T06:50:05.038Z,29.20
2018-03-16T06:51:05.015Z,29.60
2018-03-16T06:52:57.957Z,28.90
2018-03-16T06:53:57.951Z,29.40
2018-03-16T06:55:50.878Z,29.20
2018-03-16T06:56:50.891Z,28.60
2018-03-16T06:58:43.828Z,29.30
2018-03-16T06:59:43.819Z,30.40
2018-03-16T07:01:36.748Z,31.80
2018-03-16T07:02:36.758Z,30.30
2018-03-16T07:04:29.700Z,29.90
2018-03-16T07:05:29.689Z,28.60
2018-03-16T07:07:22.615Z,30.30
2018-03-16T07:08:22.625Z,28.80
2018-03-16T07:10:15.565Z,28.30
2018-03-16T07:11:15.557Z,29.30
2018-03-16T07:13:08.498Z,30.90
2018-03-16T07:14:08.490Z,30.90
2018-03-16T07:16:01.414Z,31.70
2018-03-16T07:17:01.420Z,31.30
2018-03-16T07:18:54.369Z,28.50
2018-03-16T07:19:54.360Z,29.10
2018-03-16T07:21:47.366Z,31.80
2018-03-16T07:22:47.386Z,30.90
2018-03-16T07:24:40.374Z,29.40
2018-03-16T07:25:40.328Z,31.70
2018-03-16T07:27:33.319Z,31.80
2018-03-16T07:28:33.285Z,29.00
2018-03-16T07:30:26.223Z,31.70
2018-03-16T07:31:26.216Z,32.60
2018-03-16T07:33:19.193Z,29.70
2018-03-16T07:34:19.179Z,32.00
2018-03-16T07:36:12.073Z,29.70
2018-03-16T07:37:12.093Z,30.30
2018-03-16T07:39:05.033Z,29.20
2018-03-16T07:40:05.026Z,30.30
2018-03-16T07:41:57.945Z,30.20
2018-03-16T07:42:57.962Z,30.80
2018-03-16T07:44:50.909Z,29.00
2018-03-16T07:45:50.902Z,32.30
2018-03-16T07:47:43.820Z,30.90
2018-03-16T07:48:43.829Z,28.90
2018-03-16T07:50:36.781Z,30.60
2018-03-16T07:51:36.771Z,28.80
2018-03-16T07:53:29.712Z,29.90
2018-03-16T07:54:29.702Z,30.50
2018-03-16T07:56:22.623Z,30.20
2018-03-16T07:57:22.635Z,29.80
2018-03-16T07:59:15.581Z,29.10
2018-03-16T08:00:15.571Z,31.00
2018-03-16T08:02:08.498Z,32.90
2018-03-16T08:03:08.509Z,32.20
2018-03-16T08:05:01.445Z,30.40
2018-03-16T08:06:01.438Z,31.80
2018-03-16T08:07:54.357Z,31.20
2018-03-16T08:08:54.369Z,32.00
2018-03-16T08:10:47.316Z,31.20
2018-03-16T08:11:47.303Z,29.70
2018-03-16T08:13:40.242Z,29.30
2018-03-16T08:14:40.233Z,29.40
2018-03-16T08:16:33.156Z,29.60
2018-03-16T08:17:33.171Z,29.70
2018-03-16T08:19:26.109Z,34.90
2018-03-16T08:20:26.104Z,30.50
2018-03-16T08:22:19.026Z,32.00
2018-03-16T08:23:19.039Z,30.20
2018-03-16T08:25:11.980Z,31.80
2018-03-16T08:26:11.986Z,32.20
2018-03-16T08:28:04.950Z,32.00
2018-03-16T08:29:04.907Z,34.90
2018-03-16T08:30:57.869Z,33.90
2018-03-16T08:31:57.865Z,30.50
2018-03-16T08:33:50.783Z,34.10
2018-03-16T08:34:50.775Z,33.20
2018-03-16T08:36:43.706Z,32.40
2018-03-16T08:37:43.713Z,32.80
2018-03-16T08:39:36.697Z,35.30
2018-03-16T08:40:36.647Z,33.70
2018-03-16T08:42:29.573Z,35.00
2018-03-16T08:43:29.583Z,35.00
2018-03-16T08:45:22.523Z,35.90
2018-03-16T08:46:22.516Z,39.50
2018-03-16T08:48:15.438Z,37.30
2018-03-16T08:49:15.449Z,36.10
2018-03-16T08:51:08.395Z,39.20
2018-03-16T08:52:08.383Z,40.20
2018-03-16T08:54:01.830Z,38.80
2018-03-16T08:55:01.815Z,38.50
2018-03-16T08:56:54.763Z,39.70
2018-03-16T08:57:54.753Z,38.90
2018-03-16T08:59:47.740Z,39.30
2018-03-16T09:00:47.691Z,39.50
2018-03-16T09:02:40.614Z,37.90
2018-03-16T09:03:40.625Z,38.30
2018-03-16T09:05:33.567Z,38.30
2018-03-16T09:06:33.558Z,38.50
2018-03-16T09:08:26.477Z,36.50
2018-03-16T09:09:26.496Z,36.70
2018-03-16T09:11:19.708Z,41.50
2018-03-16T09:12:19.429Z,45.10
2018-03-16T09:13:19.445Z,46.20
2018-03-16T09:14:19.466Z,52.20
2018-03-16T09:15:19.481Z,51.30
2018-03-16T09:16:19.501Z,48.10
2018-03-16T09:17:19.557Z,49.90
2018-03-16T09:18:19.560Z,52.90
2018-03-16T09:19:19.551Z,55.10
2018-03-16T09:20:19.672Z,56.30
2018-03-16T09:21:19.591Z,55.10
2018-03-16T09:22:19.631Z,57.30
2018-03-16T09:23:19.616Z,58.00
2018-03-16T09:24:19.638Z,59.60
2018-03-16T09:25:19.652Z,56.00
2018-03-16T09:26:19.671Z,58.70
2018-03-16T09:27:19.690Z,60.50
2018-03-16T09:28:19.768Z,59.30
2018-03-16T09:29:19.731Z,58.90
2018-03-16T09:30:19.751Z,59.80
2018-03-16T09:31:19.796Z,57.60
2018-03-16T09:32:19.783Z,60.30
2018-03-16T09:33:19.801Z,59.10
2018-03-16T09:34:19.819Z,62.40
2018-03-16T09:35:19.865Z,60.90
2018-03-16T09:36:19.853Z,59.80
2018-03-16T09:37:19.869Z,60.00
2018-03-16T09:38:19.886Z,63.70
2018-03-16T09:39:19.908Z,60.30
2018-03-16T09:40:19.925Z,62.70
2018-03-16T09:41:19.949Z,61.60
2018-03-16T09:42:19.959Z,60.30
2018-03-16T09:43:19.980Z,63.70
2018-03-16T09:44:19.998Z,60.70
2018-03-16T09:45:20.018Z,61.40
2018-03-16T09:46:20.034Z,63.10
2018-03-16T09:47:20.048Z,65.90
2018-03-16T09:48:20.066Z,61.50
2018-03-16T09:49:20.098Z,64.10
2018-03-16T09:50:20.100Z,62.10
2018-03-16T09:51:20.132Z,65.70
2018-03-16T09:52:20.137Z,64.30
2018-03-16T09:53:20.161Z,69.80
2018-03-16T09:54:20.180Z,64.70
2018-03-16T09:55:20.190Z,65.30
2018-03-16T09:56:20.221Z,66.80
2018-03-16T09:57:20.237Z,68.90
2018-03-16T09:58:20.248Z,68.40
2018-03-16T09:59:20.261Z,65.90
2018-03-16T10:00:20.286Z,69.00
2018-03-16T10:01:20.304Z,66.20
2018-03-16T10:02:20.315Z,69.40
2018-03-16T10:03:20.337Z,72.50
2018-03-16T10:04:20.361Z,70.70
2018-03-16T10:05:20.374Z,71.60
2018-03-16T10:06:20.390Z,67.50
2018-03-16T10:07:20.409Z,62.80
2018-03-16T10:08:20.427Z,69.40
2018-03-16T10:09:20.440Z,65.10
2018-03-16T10:10:20.457Z,67.60
2018-03-16T10:11:20.505Z,67.10
2018-03-16T10:12:20.495Z,68.60
2018-03-16T10:13:20.511Z,64.90
2018-03-16T10:14:20.534Z,69.60
2018-03-16T10:15:20.610Z,66.60
2018-03-16T10:16:20.568Z,68.60
2018-03-16T10:17:20.616Z,69.00
2018-03-16T10:18:20.598Z,65.40
2018-03-16T10:19:20.624Z,67.60
2018-03-16T10:20:20.640Z,71.60
2018-03-16T10:21:20.677Z,68.90
2018-03-16T10:22:20.669Z,69.10
2018-03-16T10:23:20.693Z,66.60
2018-03-16T10:24:20.750Z,68.50
2018-03-16T10:25:20.732Z,65.90
2018-03-16T10:26:20.739Z,67.80
2018-03-16T10:27:20.757Z,68.20
2018-03-16T10:28:20.775Z,65.30
2018-03-16T10:29:20.793Z,67.50
2018-03-16T10:30:20.809Z,63.50
2018-03-16T10:31:20.834Z,67.70
2018-03-16T10:32:20.850Z,69.30
2018-03-16T10:33:20.869Z,66.40
2018-03-16T10:34:20.884Z,68.60
2018-03-16T10:35:20.907Z,67.80
2018-03-16T10:36:20.920Z,63.00
2018-03-16T10:37:20.940Z,67.70
2018-03-16T10:38:20.951Z,64.50
2018-03-16T10:39:20.969Z,67.30
2018-03-16T10:40:20.989Z,60.90
2018-03-16T10:41:21.005Z,59.50
2018-03-16T10:42:21.028Z,62.90
2018-03-16T10:43:21.044Z,60.40
2018-03-16T10:44:21.062Z,59.20
2018-03-16T10:45:21.082Z,61.20
2018-03-16T10:46:21.099Z,60.00
2018-03-16T10:47:21.117Z,58.10
2018-03-16T10:48:21.153Z,60.20
2018-03-16T10:49:21.155Z,58.80
2018-03-16T10:50:21.168Z,57.00
2018-03-16T10:51:21.180Z,53.70
2018-03-16T10:52:21.200Z,56.90
2018-03-16T10:53:21.217Z,55.30
2018-03-16T10:54:21.240Z,55.80
2018-03-16T10:55:21.258Z,56.30
2018-03-16T10:56:21.274Z,56.50
2018-03-16T10:57:21.294Z,55.10
2018-03-16T10:58:21.309Z,57.40
2018-03-16T10:59:21.328Z,53.30
2018-03-16T11:00:21.341Z,56.70
2018-03-16T11:01:21.384Z,54.80
2018-03-16T11:02:21.393Z,52.20
2018-03-16T11:03:21.400Z,53.90
2018-03-16T11:04:21.412Z,58.10
2018-03-16T11:05:21.440Z,54.60
2018-03-16T11:06:21.464Z,52.60
2018-03-16T11:07:21.470Z,57.00
2018-03-16T11:08:21.555Z,55.50
2018-03-16T11:09:21.565Z,54.70
2018-03-16T11:10:21.520Z,54.80
2018-03-16T11:11:21.560Z,53.60
2018-03-16T11:12:21.566Z,53.20
2018-03-16T11:13:21.586Z,53.50
2018-03-16T11:16:50.299Z,52.50
2018-03-16T12:53:38.067Z,108.70
2018-03-16T12:54:38.066Z,109.30
2018-03-16T12:56:31.017Z,118.30
2018-03-16T12:57:31.007Z,112.70
2018-03-16T12:59:24.055Z,134.70
2018-03-16T13:00:24.064Z,145.50
2018-03-16T13:02:17.008Z,141.30
2018-03-16T13:03:16.998Z,149.30
2018-03-16T13:05:09.915Z,187.60
2018-03-16T13:06:09.929Z,158.40
2018-03-16T13:08:03.362Z,129.20
2018-03-16T13:09:03.352Z,133.90
2018-03-16T13:10:56.274Z,176.40
2018-03-16T13:11:56.284Z,132.30
2018-03-16T13:13:49.239Z,134.70
2018-03-16T13:14:49.211Z,133.80
2018-03-16T13:16:42.167Z,127.60
2018-03-16T13:17:42.148Z,132.50
2018-03-16T13:19:35.065Z,133.50
2018-03-16T13:20:35.076Z,119.80
2018-03-16T13:22:28.016Z,151.40
2018-03-16T13:23:28.005Z,151.90
2018-03-16T13:25:20.922Z,148.50
2018-03-16T13:26:20.933Z,136.20
2018-03-16T13:28:13.881Z,155.30
2018-03-16T13:29:13.862Z,156.20
2018-03-16T13:31:06.783Z,129.80
2018-03-16T13:32:06.868Z,133.70
2018-03-16T13:33:59.736Z,180.60
2018-03-16T13:34:59.729Z,154.50
2018-03-16T13:36:52.667Z,176.80
2018-03-16T13:37:52.660Z,298.20
2018-03-16T13:39:45.597Z,156.50
2018-03-16T13:40:45.592Z,150.20
2018-03-16T13:42:38.508Z,156.40
2018-03-16T13:43:38.519Z,157.80
2018-03-16T13:45:31.463Z,143.70
2018-03-16T13:46:31.469Z,137.10
2018-03-16T13:48:24.410Z,138.40
2018-03-16T13:49:24.397Z,128.30
2018-03-16T13:51:18.797Z,141.60
2018-03-16T13:52:18.805Z,137.00
2018-03-16T13:54:11.779Z,134.20
2018-03-16T13:55:11.743Z,134.30
2018-03-16T13:57:04.654Z,122.00
2018-03-16T13:58:04.664Z,119.90
2018-03-16T13:59:57.604Z,117.30
2018-03-16T14:00:57.597Z,110.40
2018-03-16T14:02:50.517Z,122.60
2018-03-16T14:03:50.546Z,196.90
2018-03-16T14:05:43.465Z,114.40
2018-03-16T14:06:43.455Z,104.70
2018-03-16T14:08:36.377Z,122.90
2018-03-16T14:09:36.393Z,119.60
2018-03-16T14:11:29.331Z,116.20
2018-03-16T14:12:29.322Z,121.40
2018-03-16T14:14:22.240Z,130.10
2018-03-16T14:15:22.257Z,121.90
2018-03-16T14:17:15.192Z,116.20
2018-03-16T14:18:15.181Z,104.90
2018-03-16T14:20:08.119Z,124.90
2018-03-16T14:21:08.113Z,126.90
2018-03-16T14:23:01.061Z,108.30
2018-03-16T14:24:01.081Z,112.10
2018-03-16T14:25:53.982Z,115.30
2018-03-16T14:26:53.976Z,110.50
2018-03-16T14:28:46.911Z,106.90
2018-03-16T14:29:46.905Z,105.80
2018-03-16T14:31:39.846Z,104.00
2018-03-16T14:32:39.838Z,106.00
2018-03-16T14:34:32.761Z,107.30
2018-03-16T14:35:32.778Z,107.80
2018-03-16T14:37:25.725Z,100.80
2018-03-16T14:38:25.701Z,114.50
2018-03-16T14:40:18.619Z,107.30
2018-03-16T14:41:18.630Z,101.70
2018-03-16T14:43:11.573Z,115.50
2018-03-16T14:44:11.564Z,105.00
2018-03-16T14:46:04.483Z,103.40
2018-03-16T14:47:04.494Z,106.50
2018-03-16T14:48:57.436Z,105.20
2018-03-16T14:49:57.428Z,109.60
2018-03-16T14:51:50.380Z,105.50
2018-03-16T14:52:50.364Z,105.30
2018-03-16T14:54:43.278Z,113.10
2018-03-16T14:55:43.288Z,104.60
2018-03-16T14:57:36.229Z,125.80
2018-03-16T14:58:36.224Z,111.70
2018-03-16T15:00:29.139Z,115.50
2018-03-16T15:01:29.148Z,118.60
2018-03-16T15:03:22.090Z,217.80
2018-03-16T15:04:22.078Z,108.90
2018-03-16T15:06:14.997Z,107.40
2018-03-16T15:07:15.006Z,112.90
2018-03-16T15:09:07.947Z,113.70
2018-03-16T15:10:07.972Z,111.80
2018-03-16T15:12:00.859Z,107.20
2018-03-16T15:13:00.870Z,112.60
2018-03-16T15:14:53.814Z,98.70
2018-03-16T15:15:53.797Z,99.70
2018-03-16T15:17:46.756Z,106.90
2018-03-16T15:18:46.729Z,109.70
2018-03-16T15:20:39.651Z,110.20
2018-03-16T15:21:39.701Z,112.40
2018-03-16T15:23:32.603Z,105.80
2018-03-16T15:24:32.581Z,105.70
2018-03-16T15:26:25.501Z,101.10
2018-03-16T15:27:25.517Z,103.90
2018-03-16T15:29:18.455Z,103.80
2018-03-16T15:30:18.444Z,102.20
2018-03-16T15:32:11.362Z,94.40
2018-03-16T15:33:11.370Z,94.80
2018-03-16T15:35:04.314Z,98.80
2018-03-16T15:36:04.301Z,95.10
2018-03-16T15:37:57.221Z,103.40
2018-03-16T15:38:57.233Z,99.90
2018-03-16T15:40:50.171Z,95.00
2018-03-16T15:41:50.224Z,86.20
2018-03-16T15:43:43.104Z,78.60
2018-03-16T15:44:43.088Z,77.40
2018-03-16T15:46:36.007Z,84.40
2018-03-16T15:47:36.019Z,76.50
2018-03-16T15:49:28.957Z,82.40
2018-03-16T15:50:28.947Z,84.80
2018-03-16T15:52:21.867Z,82.20
2018-03-16T15:53:21.881Z,84.90
2018-03-16T15:55:14.825Z,91.30
2018-03-16T15:56:14.812Z,87.00
2018-03-16T15:58:07.735Z,69.40
2018-03-16T15:59:07.741Z,73.40
2018-03-16T16:01:00.680Z,76.70
2018-03-16T16:02:00.669Z,76.30
2018-03-16T16:03:53.588Z,72.40
2018-03-16T16:04:53.598Z,69.20
2018-03-16T16:06:46.531Z,79.50
2018-03-16T16:07:46.526Z,69.30
2018-03-16T16:09:39.445Z,71.10
2018-03-16T16:10:39.452Z,73.00
2018-03-16T16:12:32.395Z,68.70
2018-03-16T16:13:32.380Z,65.60
2018-03-16T16:15:25.314Z,64.20
2018-03-16T16:16:25.309Z,64.40
2018-03-16T16:18:18.221Z,59.90
2018-03-16T16:19:18.234Z,60.00
2018-03-16T16:21:11.170Z,60.10
2018-03-16T16:22:11.159Z,57.90
2018-03-16T16:24:04.081Z,58.70
2018-03-16T16:25:04.093Z,63.90
2018-03-16T16:26:57.057Z,63.20
2018-03-16T16:27:57.021Z,62.40
2018-03-16T16:29:49.941Z,114.90
2018-03-16T16:30:49.947Z,78.70
2018-03-16T16:32:42.888Z,62.30
2018-03-16T16:33:42.873Z,60.10
2018-03-16T16:35:35.794Z,64.80
2018-03-16T16:36:35.803Z,62.90
2018-03-16T16:38:28.749Z,68.50
2018-03-16T16:39:28.734Z,64.60
2018-03-16T16:41:21.673Z,61.40
2018-03-16T16:42:21.690Z,66.40
2018-03-16T16:44:14.634Z,69.40
2018-03-16T16:45:14.592Z,69.50
2018-03-16T16:47:07.524Z,69.00
2018-03-16T16:48:07.512Z,64.30
2018-03-16T16:50:00.426Z,72.40
2018-03-16T16:51:00.435Z,65.10
2018-03-16T16:52:53.372Z,59.30
2018-03-16T16:53:53.362Z,62.70
2018-03-16T16:55:46.282Z,61.80
2018-03-16T16:56:46.289Z,73.30
2018-03-16T16:58:39.226Z,75.40
2018-03-16T16:59:39.216Z,72.40
2018-03-16T17:01:32.133Z,74.00
2018-03-16T17:02:32.145Z,73.80
2018-03-16T17:04:25.074Z,75.30
2018-03-16T17:05:25.067Z,73.10
2018-03-16T17:07:18.004Z,71.30
2018-03-16T17:08:17.991Z,95.80
2018-03-16T17:10:10.908Z,94.10
2018-03-16T17:11:10.920Z,81.60
2018-03-16T17:13:03.856Z,78.60
2018-03-16T17:14:03.848Z,84.70
2018-03-16T17:15:56.763Z,80.30
2018-03-16T17:16:56.792Z,81.60
2018-03-16T17:18:49.703Z,87.80
2018-03-16T17:19:49.694Z,84.70
2018-03-16T17:21:42.621Z,76.90
2018-03-16T17:22:42.622Z,76.90
2018-03-16T17:24:35.557Z,72.10
2018-03-16T17:25:35.544Z,71.40
2018-03-16T17:27:28.528Z,68.20
2018-03-16T17:28:28.474Z,76.70
2018-03-16T17:30:21.388Z,69.20
2018-03-16T17:31:21.397Z,74.30
2018-03-16T17:33:14.336Z,68.70
2018-03-16T17:34:14.323Z,69.90
2018-03-16T17:36:07.242Z,64.20
2018-03-16T17:37:07.249Z,68.70
2018-03-16T17:39:00.191Z,61.20
2018-03-16T17:40:00.176Z,61.90
2018-03-16T17:41:53.094Z,60.00
2018-03-16T17:42:53.110Z,63.80
2018-03-16T17:44:46.038Z,69.80
2018-03-16T17:45:46.028Z,66.20
2018-03-16T17:47:38.946Z,62.70
2018-03-16T17:48:38.949Z,62.90
2018-03-16T17:50:31.887Z,62.40
2018-03-16T17:51:31.875Z,64.80
2018-03-16T17:53:24.807Z,63.70
2018-03-16T17:54:24.796Z,61.20
2018-03-16T17:56:17.717Z,63.30
2018-03-16T17:57:17.723Z,64.40
2018-03-16T17:59:10.663Z,62.60
2018-03-16T18:00:10.649Z,68.70
2018-03-16T18:02:03.571Z,77.00
2018-03-16T18:03:03.573Z,79.00
2018-03-16T18:04:56.512Z,88.90
2018-03-16T18:05:56.503Z,88.50
2018-03-16T18:07:49.415Z,102.50
2018-03-16T18:08:49.424Z,121.60
2018-03-16T18:10:42.362Z,128.00
2018-03-16T18:11:42.379Z,138.50
2018-03-16T18:13:35.267Z,156.90
2018-03-16T18:14:35.282Z,176.30
2018-03-16T18:16:28.214Z,164.60
2018-03-16T18:17:28.199Z,169.60
2018-03-16T18:19:21.134Z,182.20
2018-03-16T18:20:21.121Z,169.10
2018-03-16T18:22:14.040Z,176.10
2018-03-16T18:23:14.053Z,185.40
2018-03-16T18:25:06.982Z,183.60
2018-03-16T18:26:06.970Z,186.70
2018-03-16T18:27:59.889Z,199.60
2018-03-16T18:28:59.896Z,200.50
2018-03-16T18:30:52.827Z,188.50
2018-03-16T18:31:52.817Z,188.60
2018-03-16T18:33:45.736Z,208.10
2018-03-16T18:34:45.740Z,199.50
2018-03-16T18:36:38.676Z,283.50
2018-03-16T18:37:38.663Z,188.20
2018-03-16T18:39:31.581Z,184.50
2018-03-16T18:40:31.586Z,187.50
2018-03-16T18:42:24.521Z,176.30
2018-03-16T18:43:24.506Z,189.10
2018-03-16T18:45:17.452Z,178.90
2018-03-16T18:46:17.431Z,173.00
2018-03-16T18:48:10.353Z,170.30
2018-03-16T18:49:10.357Z,191.30
2018-03-16T18:51:03.293Z,167.20
2018-03-16T18:52:03.289Z,162.10
2018-03-16T18:53:56.211Z,180.80
2018-03-16T18:54:56.201Z,184.20
2018-03-16T18:56:49.140Z,192.60
2018-03-16T18:57:49.165Z,176.20
2018-03-16T18:58:49.140Z,175.10
2018-03-16T18:59:49.154Z,197.80
2018-03-16T19:00:49.171Z,209.60
2018-03-16T19:01:49.180Z,199.80
2018-03-16T19:02:49.193Z,203.50
2018-03-16T19:03:49.210Z,213.60
2018-03-16T19:04:49.218Z,224.10
2018-03-16T19:05:49.232Z,185.60
2018-03-16T19:06:49.246Z,213.60
2018-03-16T19:07:49.258Z,218.10
2018-03-16T19:08:49.272Z,197.20
2018-03-16T19:09:49.286Z,218.70
2018-03-16T19:10:49.300Z,199.50
2018-03-16T19:11:49.311Z,207.10
2018-03-16T19:12:49.327Z,208.00
2018-03-16T19:13:49.340Z,202.20
2018-03-16T19:14:49.359Z,214.20
2018-03-16T19:15:49.365Z,205.00
2018-03-16T19:16:49.383Z,204.40
2018-03-16T19:17:49.396Z,210.80
2018-03-16T19:18:49.410Z,211.10
2018-03-16T19:19:49.420Z,215.40
2018-03-16T19:20:49.432Z,208.30
2018-03-16T19:21:49.448Z,208.40
2018-03-16T19:22:49.464Z,208.00
2018-03-16T19:23:49.472Z,212.00
2018-03-16T19:24:49.487Z,217.60
2018-03-16T19:25:49.498Z,240.30
2018-03-16T19:26:49.518Z,236.40
2018-03-16T19:27:49.529Z,248.20
2018-03-16T19:28:49.543Z,237.70
2018-03-16T19:29:49.550Z,232.50